< < Back
Terminal Aerodrome Forecast


Current Version              Previous Versions:   1  2  3  4  5  6  7  8  9  

Terminal Aerodrome Forecast

533
FTUS42 KFFC 290520
TAFMCN
TAF
KMCN 290520Z 2906/3006 25005KT P6SM FEW080
     FM291400 26007KT P6SM SCT035
     FM291800 27010KT P6SM SCT050
     FM300100 26004KT P6SM SCT070=

Latest METAR

824
SAUS80 KWBC 291600 RRB
MTRMCN
METAR KMCN 291553Z 26010G16KT 10SM CLR 33/20 A3003 RMK AO2 SLP162
T03330200


USA.gov is the U.S. government's official web portal to all federal, state and local government web resources and services.